Tropical Cyclones
[Index]
Main Index Home Page Stock Weather Photos Extreme Storms Discussion Storm News and Storm Chasing Reports Tropical Cyclones / Hurricanes / Typhoons Weather Data and Links Wild Fires / Bushfires Weather Observation Techniques Weather Picture Catalogue Tornado Pictures and Reports Stock Video Footage and DVDs for sale
Season 2004-2005 Tropical Cyclone MEENA Track Map
Season 2004-2005 Summaries (Operational Data): [AU] [SIO] [SPAC] [SH]
<<- Previous TC | 2004-2005 Season | Next TC ->>

click for intensity scale information  Lat/long Grid: Show Hide

 Date Labels: Show Hide

Operational Tropical Cyclone Data : JTWC Advisories

Name: MEENA
Number: 0515

02 Feb 2005 06:00 UTC to 08 Feb 2005 12:00 UTC

    date/time    lat    long     hPa   cat  kts
2005-02-02 06   17.0   167.0W   1002         15          
2005-02-02 12   16.8   167.0W   1000         30          
2005-02-02 18   16.1   166.7W    998         30          
2005-02-02 21   15.0   168.0W    998         30          
2005-02-03 00   14.8   167.4W    997         30          
2005-02-03 06   14.4   168.2W    995    1    35          
2005-02-03 12   14.2   167.5W    985    2    50          
2005-02-03 18   14.2   167.3W    985    2    50          
2005-02-04 00   14.0   167.5W    980    2    55          
2005-02-04 06   13.9   166.9W    975    2    60          
2005-02-04 12   14.1   165.9W    970    3    65          
2005-02-04 18   14.3   165.0W    965    3    70          
2005-02-05 00   14.7   164.1W    965    3    70          
2005-02-05 06   15.5   163.7W    960    3    75          
2005-02-05 12   15.8   162.9W    960    3    80          
2005-02-05 18   16.7   162.3W    940    4    90          
2005-02-06 00   17.4   162.2W    925    4   100          
2005-02-06 06   18.4   161.6W    920    5   110          
2005-02-06 12   19.7   160.6W    915    5   115          
2005-02-06 18   21.1   159.3W    915    5   115          
2005-02-07 00   22.9   158.2W    925    4   100          
2005-02-07 06   24.2   156.0W    945    3    85          
2005-02-07 12   25.4   154.5W    950    3    80          
2005-02-07 18   26.6   152.6W    965    3    70          
2005-02-08 00   28.0   150.0W    980    2    55          
2005-02-08 06   29.0   148.0W    986    2    50          
2005-02-08 12   30.0   147.0W    986    2    50          
Winds are 10-min average.

Tropical cyclone tracks developed by Michael Bath using operational warnings and advisories and Google Maps.


[Australian Severe Weather index] [Copyright Notice] [Email Contacts] [Search This Site] [Privacy Policy]
Document: tropical_cyclone_meena.htm Updated: 28 May 2013